Time;durP1;ratioP1;P1;durP2;ratioP2;P2;SDS_P1;SDS_P2;PMS_P1;PMS_P2;Temp;Humidity;BMP_temperature;BMP_pressure;BME280_temperature;BME280_humidity;BME280_pressure;Samples;Min_cycle;Max_cycle;Signal;HPM_P1;HPM_P2
2022/12/29 03:30:24;;;;;;;1.60;1.15;;;9.90;99.90;;;;;;899397;23;20592;-89
2022/12/29 03:32:53;;;;;;;1.20;1.10;;;10.00;99.90;;;;;;4940935;29;20202;-96
2022/12/29 03:38:03;;;;;;;1.38;0.93;;;10.00;99.90;;;;;;4948801;23;20225;-95
2022/12/29 03:40:34;;;;;;;1.20;1.10;;;10.00;99.90;;;;;;4942793;29;20288;-96
2022/12/29 06:28:41;;;;;;;1.42;1.33;;;10.40;99.90;;;;;;3960943;23;20247;-95
2022/12/29 06:31:10;;;;;;;1.83;1.40;;;10.40;99.90;;;;;;4943608;29;20217;-94
2022/12/29 06:33:37;;;;;;;3.58;1.30;;;10.40;99.90;;;;;;4958842;23;20267;-92
2022/12/29 06:36:05;;;;;;;1.60;1.50;;;10.40;99.90;;;;;;4940169;29;20217;-94
2022/12/29 06:38:31;;;;;;;1.60;1.50;;;10.30;99.90;;;;;;4942748;29;20233;-93
2022/12/29 06:40:58;;;;;;;2.08;1.45;;;10.30;99.90;;;;;;4942387;29;20285;-94
2022/12/29 06:43:25;;;;;;;1.55;1.20;;;10.20;99.90;;;;;;4927451;29;20186;-94
2022/12/29 06:45:53;;;;;;;1.20;1.10;;;10.10;99.90;;;;;;4924859;29;20274;-95
2022/12/29 06:48:20;;;;;;;1.30;1.20;;;10.10;99.90;;;;;;4923386;29;20256;-93
2022/12/29 06:50:47;;;;;;;1.50;1.20;;;10.00;99.90;;;;;;4923851;29;20273;-95
2022/12/29 06:53:14;;;;;;;2.60;1.40;;;10.00;99.90;;;;;;4923985;29;20259;-94
2022/12/29 06:55:42;;;;;;;2.85;1.70;;;9.90;99.90;;;;;;4924413;29;20194;-93
2022/12/29 06:58:09;;;;;;;1.52;1.42;;;9.90;99.90;;;;;;4923582;29;20254;-94
2022/12/29 07:00:36;;;;;;;1.67;1.40;;;9.90;99.90;;;;;;4923357;29;20234;-95
2022/12/29 07:03:04;;;;;;;1.38;1.20;;;9.80;99.90;;;;;;4924247;29;20206;-96
2022/12/29 07:05:32;;;;;;;1.58;1.20;;;9.80;99.90;;;;;;4924770;29;20219;-96
2022/12/29 07:07:59;;;;;;;1.50;1.10;;;9.70;99.90;;;;;;4924732;29;20227;-94
2022/12/29 07:10:27;;;;;;;1.48;1.30;;;9.70;99.90;;;;;;4923867;29;20313;-93
2022/12/29 07:12:53;;;;;;;1.75;1.35;;;9.80;99.90;;;;;;4924490;29;20245;-95
2022/12/29 07:15:21;;;;;;;1.40;1.05;;;9.80;99.90;;;;;;4924054;29;20257;-93
2022/12/29 07:17:49;;;;;;;1.00;0.90;;;9.90;99.90;;;;;;4924254;29;20262;-93
2022/12/29 07:38:24;;;;;;;3.15;1.52;;;9.90;99.90;;;;;;1001313;23;20612;-94
2022/12/29 07:40:51;;;;;;;2.28;1.30;;;9.90;99.90;;;;;;4941612;29;20234;-95
2022/12/29 07:43:18;;;;;;;1.50;1.23;;;9.90;99.90;;;;;;4942599;29;20251;-95
2022/12/29 07:45:45;;;;;;;1.25;1.15;;;10.00;99.90;;;;;;4941765;29;20221;-92
2022/12/29 07:48:12;;;;;;;2.55;1.67;;;10.00;99.90;;;;;;4942248;29;20224;-94
2022/12/29 07:50:38;;;;;;;1.20;1.05;;;10.00;99.90;;;;;;4941486;29;20470;-93
2022/12/29 09:44:36;;;;;;;2.13;1.40;;;11.10;99.90;;;;;;2532455;23;20225;-94
2022/12/29 09:47:03;;;;;;;2.40;1.30;;;11.10;99.90;;;;;;4938779;29;20257;-96
2022/12/29 09:49:34;;;;;;;1.83;1.50;;;11.20;99.90;;;;;;4939114;29;20182;-94
2022/12/29 09:52:09;;;;;;;1.33;1.23;;;11.20;99.90;;;;;;4939841;29;20218;-95
2022/12/29 09:54:58;;;;;;;2.22;1.40;;;11.30;99.90;;;;;;4939514;29;20189;-93
2022/12/29 10:18:19;;;;;;;1.40;1.13;;;11.40;99.90;;;;;;4867544;29;20230;-92
2022/12/29 10:20:57;;;;;;;1.75;1.30;;;11.40;99.90;;;;;;4867536;29;20240;-94
2022/12/29 10:26:52;;;;;;;1.90;1.30;;;11.50;99.90;;;;;;4872137;29;20236;-93
2022/12/29 10:29:21;;;;;;;2.03;1.40;;;11.60;99.90;;;;;;4877298;29;20224;-91
2022/12/29 10:31:58;;;;;;;1.75;1.50;;;11.60;99.90;;;;;;4881654;29;20264;-93
2022/12/29 10:37:33;;;;;;;2.47;1.60;;;11.90;99.90;;;;;;4877574;29;20196;-93
2022/12/29 10:40:03;;;;;;;1.40;1.30;;;12.10;99.90;;;;;;4873009;29;20232;-92
2022/12/29 10:42:39;;;;;;;1.95;1.80;;;12.10;99.90;;;;;;4872014;29;20235;-93
2022/12/29 10:45:12;;;;;;;4.18;1.65;;;12.40;99.90;;;;;;4871696;29;20218;-93
2022/12/29 10:47:49;;;;;;;7.13;1.30;;;13.40;99.90;;;;;;4872773;29;20240;-93
2022/12/29 10:50:18;;;;;;;1.70;1.60;;;14.60;99.90;;;;;;4873686;29;20267;-92
2022/12/29 10:52:45;;;;;;;2.57;1.00;;;15.00;99.90;;;;;;4886426;29;20532;-92
2022/12/29 10:55:18;;;;;;;1.50;1.40;;;14.60;99.90;;;;;;4886479;29;20441;-92
2022/12/29 10:57:48;;;;;;;1.43;1.23;;;14.20;99.90;;;;;;4884328;29;20470;-92
2022/12/29 11:00:35;;;;;;;1.37;1.17;;;13.70;99.90;;;;;;4876217;29;20484;-92
2022/12/29 11:03:18;;;;;;;5.03;1.30;;;13.50;99.90;;;;;;4871602;29;20488;-91
2022/12/29 11:05:53;;;;;;;2.60;1.03;;;13.40;99.90;;;;;;4873185;29;20467;-93
2022/12/29 11:08:25;;;;;;;2.13;1.73;;;13.30;99.90;;;;;;4868948;29;20475;-93
2022/12/29 11:11:01;;;;;;;1.30;1.10;;;13.10;99.90;;;;;;4865879;29;20681;-93
2022/12/29 11:13:30;;;;;;;2.13;1.40;;;12.90;99.90;;;;;;4867063;29;20231;-91
2022/12/29 11:15:59;;;;;;;1.63;1.40;;;12.70;99.90;;;;;;4865964;29;20469;-92
2022/12/29 11:18:32;;;;;;;1.63;1.40;;;12.60;99.90;;;;;;4867709;29;20188;-93
2022/12/29 11:21:03;;;;;;;1.90;1.20;;;12.60;99.90;;;;;;4866998;29;20235;-94
2022/12/29 11:23:33;;;;;;;1.75;1.25;;;12.60;99.90;;;;;;4867051;29;20242;-93
2022/12/29 11:26:24;;;;;;;2.50;1.70;;;12.60;99.90;;;;;;4867573;29;20219;-92
2022/12/29 11:29:37;;;;;;;2.17;1.23;;;12.50;99.90;;;;;;4879641;29;20224;-94
2022/12/29 11:32:13;;;;;;;2.40;1.63;;;12.40;99.90;;;;;;4872907;29;20221;-93
2022/12/29 11:34:40;;;;;;;1.30;1.20;;;12.30;99.90;;;;;;4871762;29;20223;-94
2022/12/29 11:37:34;;;;;;;1.42;1.27;;;12.20;99.90;;;;;;4880421;29;20213;-93
2022/12/29 11:56:05;;;;;;;1.42;0.90;;;12.40;99.90;;;;;;4874156;29;20219;-94
2022/12/29 11:58:34;;;;;;;2.03;1.30;;;12.30;99.90;;;;;;4882127;29;20207;-94
2022/12/29 12:01:03;;;;;;;1.35;1.10;;;12.20;99.90;;;;;;4881922;29;20232;-94
2022/12/29 12:03:41;;;;;;;1.45;1.13;;;12.10;99.90;;;;;;4882043;29;20242;-93
2022/12/29 12:06:15;;;;;;;2.05;1.05;;;12.10;99.90;;;;;;4882961;29;20225;-94
2022/12/29 12:08:47;;;;;;;3.25;1.20;;;12.00;99.90;;;;;;4875127;29;20223;-93
2022/12/29 12:11:20;;;;;;;1.38;1.17;;;11.90;99.90;;;;;;4864341;29;20256;-94
2022/12/29 12:14:02;;;;;;;1.65;1.23;;;11.90;99.90;;;;;;4864878;29;20196;-93
2022/12/29 12:16:36;;;;;;;1.27;1.17;;;11.90;99.90;;;;;;4867116;29;20311;-93
2022/12/29 12:19:27;;;;;;;1.88;1.40;;;11.80;99.90;;;;;;4865601;29;20211;-93
2022/12/29 12:22:04;;;;;;;1.55;1.20;;;11.80;99.90;;;;;;4865992;29;20287;-94
2022/12/29 12:24:40;;;;;;;2.55;1.30;;;11.80;99.90;;;;;;4865161;29;20286;-94
2022/12/29 12:27:22;;;;;;;1.70;1.35;;;11.70;99.90;;;;;;4864524;29;20670;-93
2022/12/29 12:29:59;;;;;;;3.80;1.30;;;11.80;99.90;;;;;;4864564;29;20321;-94
2022/12/29 12:32:42;;;;;;;2.05;1.60;;;11.80;99.90;;;;;;4865200;29;20208;-94
2022/12/29 12:38:32;;;;;;;1.38;1.27;;;11.70;99.90;;;;;;4860908;29;20219;-95
2022/12/29 12:41:09;;;;;;;3.60;1.23;;;11.50;99.90;;;;;;4864816;29;20255;-93
2022/12/29 12:43:46;;;;;;;2.20;1.67;;;11.40;99.90;;;;;;4864945;29;20231;-94
2022/12/29 12:46:58;;;;;;;2.20;1.50;;;11.30;99.90;;;;;;4868561;29;20287;-92
2022/12/29 12:50:21;;;;;;;2.90;1.52;;;11.20;99.90;;;;;;4866743;29;20216;-93
2022/12/29 12:53:11;;;;;;;1.35;1.25;;;11.10;99.90;;;;;;4864991;29;20212;-93
2022/12/29 12:56:05;;;;;;;1.20;1.00;;;11.20;99.90;;;;;;4865365;29;20683;-93
2022/12/29 12:58:58;;;;;;;1.70;1.40;;;11.20;99.90;;;;;;4866038;29;20583;-93
2022/12/29 13:01:42;;;;;;;2.25;1.60;;;11.40;99.90;;;;;;4865262;29;20269;-93
2022/12/29 13:05:15;;;;;;;2.42;1.40;;;11.80;99.90;;;;;;4865157;29;20218;-94
2022/12/29 13:08:02;;;;;;;4.25;1.65;;;12.30;99.90;;;;;;4866038;29;20208;-93
2022/12/29 13:10:43;;;;;;;1.65;1.55;;;12.60;99.90;;;;;;4865101;29;20307;-93
2022/12/29 13:13:44;;;;;;;1.45;1.30;;;12.60;99.90;;;;;;4865048;29;20204;-93
2022/12/29 13:16:33;;;;;;;3.30;1.63;;;12.50;99.90;;;;;;4875128;29;20221;-93
2022/12/29 14:01:21;;;;;;;1.77;1.50;;;11.30;99.90;;;;;;4897827;29;20227;-93
2022/12/29 14:09:32;;;;;;;3.40;1.90;;;11.40;99.90;;;;;;4959825;23;20221;-94
2022/12/29 14:12:00;;;;;;;2.20;1.42;;;11.50;99.90;;;;;;4886118;29;20204;-93
2022/12/29 14:17:30;;;;;;;1.40;1.30;;;11.50;99.90;;;;;;4879635;29;20666;-93
2022/12/29 14:23:13;;;;;;;;;;;;;;;;;;;;;
2022/12/29 14:25:59;;;;;;;2.30;1.20;;;11.30;99.90;;;;;;4871201;29;20238;-93
2022/12/29 14:28:29;;;;;;;1.92;1.77;;;11.30;99.90;;;;;;4869637;29;20204;-92
2022/12/29 14:31:02;;;;;;;1.70;1.48;;;11.30;99.90;;;;;;4872288;29;20282;-93
2022/12/29 14:33:46;;;;;;;1.60;1.45;;;11.30;99.90;;;;;;4872007;29;20231;-93
2022/12/29 14:36:30;;;;;;;1.60;1.50;;;11.40;99.90;;;;;;4871530;29;20252;-94
2022/12/29 14:39:25;;;;;;;1.60;1.50;;;11.40;99.90;;;;;;4872602;29;20207;-94
2022/12/29 14:45:32;;;;;;;1.80;1.45;;;11.30;99.90;;;;;;4870340;29;20220;-94
2022/12/29 14:48:12;;;;;;;1.77;1.50;;;11.30;99.90;;;;;;4871278;29;20212;-94
2022/12/29 14:51:03;;;;;;;1.73;1.60;;;11.20;99.90;;;;;;4871924;29;20318;-94
2022/12/29 14:53:46;;;;;;;3.70;1.42;;;11.20;99.90;;;;;;4871769;29;20272;-94
2022/12/29 14:56:43;;;;;;;1.60;1.25;;;11.10;99.90;;;;;;4869194;29;20205;-93
2022/12/29 14:59:13;;;;;;;3.58;1.50;;;11.10;99.90;;;;;;4868468;29;20794;-93
2022/12/29 15:02:07;;;;;;;1.65;1.33;;;11.10;99.90;;;;;;4882477;29;20222;-94
2022/12/29 15:04:37;;;;;;;3.53;1.35;;;11.00;99.90;;;;;;4885407;29;20211;-94
2022/12/29 15:10:38;;;;;;;2.03;1.52;;;11.00;99.90;;;;;;4876603;29;20316;-93
2022/12/29 15:13:44;;;;;;;2.25;1.55;;;11.00;99.90;;;;;;4885550;29;20571;-94
2022/12/29 15:19:36;;;;;;;1.98;1.42;;;10.90;99.90;;;;;;4884900;29;20725;-93
2022/12/29 15:22:19;;;;;;;1.80;1.50;;;10.90;99.90;;;;;;4886334;29;20204;-95
2022/12/29 15:25:06;;;;;;;3.55;1.70;;;10.90;99.90;;;;;;4873760;29;20234;-93
2022/12/29 17:50:52;;;;;;;1.58;1.48;;;8.80;99.90;;;;;;4878450;29;20230;-91
2022/12/29 17:53:30;;;;;;;2.03;1.63;;;8.70;99.90;;;;;;4881392;29;20203;-92
2022/12/29 17:55:58;;;;;;;4.18;1.55;;;8.60;99.90;;;;;;4881764;29;20295;-91
2022/12/29 17:58:27;;;;;;;1.27;1.17;;;8.50;99.90;;;;;;4881669;29;20207;-92
2022/12/29 18:00:57;;;;;;;3.55;1.10;;;8.50;99.90;;;;;;4881337;29;20253;-92
2022/12/29 18:03:30;;;;;;;1.92;1.27;;;8.40;99.90;;;;;;4882785;29;20226;-92
2022/12/29 18:05:58;;;;;;;1.92;1.40;;;8.40;99.90;;;;;;4902920;29;20246;-93
2022/12/29 18:08:27;;;;;;;1.55;1.40;;;8.40;99.90;;;;;;4881720;29;20233;-92
2022/12/29 18:10:55;;;;;;;43.08;31.63;;;8.40;99.90;;;;;;4880629;29;20227;-91
2022/12/29 18:13:28;;;;;;;44.22;34.15;;;8.40;99.90;;;;;;4881181;29;20293;-92
2022/12/29 19:04:48;;;;;;;1.40;1.08;;;8.70;99.90;;;;;;4877503;29;20229;-91
2022/12/29 19:07:33;;;;;;;1.30;1.20;;;8.60;99.90;;;;;;4881509;29;20728;-92
2022/12/29 19:10:28;;;;;;;1.85;1.10;;;8.60;99.90;;;;;;4885152;29;20232;-92
2022/12/29 19:13:28;;;;;;;2.10;1.20;;;8.60;99.90;;;;;;4851634;29;20212;-91
2022/12/29 19:19:09;;;;;;;1.30;1.20;;;8.50;99.90;;;;;;4882699;29;20206;-92
2022/12/29 19:21:45;;;;;;;2.67;1.27;;;8.50;99.90;;;;;;5063042;23;20713;-91
2022/12/29 19:24:14;;;;;;;1.70;1.52;;;8.50;99.90;;;;;;4907125;29;20240;-94
2022/12/29 19:27:07;;;;;;;1.88;1.52;;;8.50;99.90;;;;;;4916489;29;20209;-92
2022/12/29 19:29:34;;;;;;;2.00;1.10;;;8.50;99.90;;;;;;4897320;29;20203;-94
2022/12/29 19:32:01;;;;;;;2.90;1.50;;;8.50;99.90;;;;;;4901070;29;20448;-93
2022/12/29 19:34:28;;;;;;;1.50;1.17;;;8.50;99.90;;;;;;4893538;29;20306;-90
2022/12/29 19:36:56;;;;;;;1.58;1.10;;;8.50;99.90;;;;;;4886722;29;20192;-92
2022/12/29 19:39:23;;;;;;;2.25;1.33;;;8.40;99.90;;;;;;4896802;29;20239;-92
2022/12/29 19:41:50;;;;;;;1.92;1.10;;;8.40;99.90;;;;;;4893944;29;20219;-94
2022/12/29 19:44:18;;;;;;;3.03;1.17;;;8.40;99.90;;;;;;4891218;29;20275;-90
2022/12/29 19:46:45;;;;;;;2.60;1.40;;;8.30;99.90;;;;;;4891031;29;20215;-93
2022/12/29 19:49:27;;;;;;;1.63;1.40;;;8.30;99.90;;;;;;4891587;29;20212;-94
2022/12/29 19:51:56;;;;;;;1.35;0.90;;;8.30;99.90;;;;;;4891788;29;20211;-92
2022/12/29 19:54:23;;;;;;;2.50;1.30;;;8.30;99.90;;;;;;4895418;29;20228;-93
2022/12/29 19:56:49;;;;;;;1.00;0.90;;;8.20;99.90;;;;;;4892722;29;20230;-91
2022/12/29 19:59:16;;;;;;;1.10;1.00;;;8.20;99.90;;;;;;4888139;29;20212;-93
2022/12/29 20:01:43;;;;;;;2.65;1.50;;;8.20;99.90;;;;;;4887136;29;20214;-93
2022/12/29 20:04:10;;;;;;;1.10;1.00;;;8.10;99.90;;;;;;4890192;29;20239;-93
2022/12/29 20:06:37;;;;;;;1.67;0.90;;;8.10;99.90;;;;;;4885732;29;20680;-93
2022/12/29 20:09:05;;;;;;;1.90;0.93;;;8.10;99.90;;;;;;4885896;29;20219;-93
2022/12/29 20:11:32;;;;;;;1.23;1.02;;;8.10;99.90;;;;;;4881397;29;20234;-93
2022/12/29 20:13:59;;;;;;;1.27;0.90;;;8.10;99.90;;;;;;4885656;29;20231;-94
2022/12/29 20:16:28;;;;;;;1.13;1.02;;;8.10;99.90;;;;;;4885486;29;20292;-93
2022/12/29 20:18:55;;;;;;;1.15;0.95;;;8.00;99.90;;;;;;4886319;29;20226;-93
2022/12/29 20:21:25;;;;;;;1.75;1.30;;;8.00;99.90;;;;;;4884752;29;20250;-92
2022/12/29 20:23:56;;;;;;;1.80;1.10;;;7.90;99.90;;;;;;4888507;29;20238;-93
2022/12/29 20:26:28;;;;;;;2.03;1.20;;;7.90;99.90;;;;;;4899349;29;20198;-94
2022/12/29 20:28:56;;;;;;;1.33;1.00;;;8.00;99.90;;;;;;4902303;29;20183;-95
2022/12/29 20:31:25;;;;;;;1.25;1.02;;;8.00;99.90;;;;;;4903142;29;20211;-92
2022/12/29 20:33:52;;;;;;;1.02;0.80;;;8.00;99.90;;;;;;4903229;29;20242;-93
2022/12/29 20:36:21;;;;;;;1.42;1.10;;;7.90;99.90;;;;;;4900743;29;20225;-93
2022/12/29 20:38:49;;;;;;;1.00;0.80;;;7.90;99.90;;;;;;4891486;29;20219;-93
2022/12/29 20:41:16;;;;;;;3.15;1.45;;;7.90;99.90;;;;;;4883825;29;20238;-93
2022/12/29 20:43:45;;;;;;;3.58;1.13;;;7.90;99.90;;;;;;4883306;29;20231;-92
2022/12/29 20:46:13;;;;;;;1.05;0.90;;;7.80;99.90;;;;;;4883174;29;20226;-92
2022/12/29 20:48:40;;;;;;;1.23;0.90;;;7.80;99.90;;;;;;4886460;29;20326;-93
2022/12/29 20:51:09;;;;;;;0.88;0.80;;;7.80;99.90;;;;;;4886864;29;20256;-93
2022/12/29 20:53:38;;;;;;;1.67;1.00;;;7.80;99.90;;;;;;4888643;29;20213;-92
2022/12/29 20:56:07;;;;;;;1.63;1.02;;;7.70;99.90;;;;;;4884900;29;20195;-91
2022/12/29 20:58:35;;;;;;;1.15;1.05;;;7.70;99.90;;;;;;4883925;29;20560;-93
2022/12/29 21:01:08;;;;;;;1.20;1.10;;;7.60;99.90;;;;;;4882755;29;20258;-92
2022/12/29 21:03:35;;;;;;;1.00;0.80;;;7.60;99.90;;;;;;4886449;29;20229;-92
2022/12/29 21:06:02;;;;;;;0.90;0.80;;;7.50;99.90;;;;;;4881634;29;20205;-91
2022/12/29 21:08:29;;;;;;;1.85;1.00;;;7.50;99.90;;;;;;4893094;29;20215;-92
2022/12/29 21:10:57;;;;;;;1.85;0.80;;;7.50;99.90;;;;;;4892876;29;20220;-92
2022/12/29 21:13:24;;;;;;;0.80;0.70;;;7.50;99.90;;;;;;4895266;29;20201;-92
2022/12/29 21:15:55;;;;;;;2.40;1.00;;;7.40;99.90;;;;;;4886219;29;20213;-94
2022/12/29 21:18:25;;;;;;;1.00;0.90;;;7.40;99.90;;;;;;4889384;29;20213;-93
2022/12/29 21:20:56;;;;;;;0.80;0.70;;;7.40;99.90;;;;;;4887661;29;20253;-93
2022/12/29 21:23:23;;;;;;;1.00;0.90;;;7.40;99.90;;;;;;4886785;29;20231;-92
2022/12/29 21:25:50;;;;;;;1.23;1.00;;;7.40;99.90;;;;;;4888364;29;20215;-92
2022/12/29 21:28:17;;;;;;;1.20;1.10;;;7.40;99.90;;;;;;4888860;29;20211;-93
2022/12/29 21:30:45;;;;;;;2.20;0.80;;;7.30;99.90;;;;;;4893608;29;20302;-91
2022/12/29 21:33:12;;;;;;;1.13;0.70;;;7.30;99.90;;;;;;4891515;29;20207;-93
2022/12/29 21:35:40;;;;;;;1.02;0.82;;;7.30;99.90;;;;;;4891079;29;20409;-92
2022/12/29 21:38:08;;;;;;;1.33;1.02;;;7.30;99.90;;;;;;4890708;29;20199;-93
2022/12/29 21:40:36;;;;;;;1.45;0.80;;;7.30;99.90;;;;;;4893216;29;20327;-94
2022/12/29 21:43:04;;;;;;;1.05;0.75;;;7.30;99.90;;;;;;4892010;29;20200;-92
2022/12/29 21:45:31;;;;;;;0.95;0.70;;;7.30;99.90;;;;;;4889736;29;20203;-92
2022/12/29 21:53:45;;;;;;;1.92;1.10;;;7.20;99.90;;;;;;4874728;29;20199;-91
2022/12/29 21:56:15;;;;;;;0.70;0.70;;;7.20;99.90;;;;;;4887010;29;20207;-91
2022/12/29 22:15:15;;;;;;;0.70;0.70;;;6.80;99.90;;;;;;4888476;29;20270;-90
2022/12/29 22:17:45;;;;;;;1.13;0.85;;;6.70;99.90;;;;;;4888799;29;20212;-91
2022/12/29 22:20:12;;;;;;;1.25;0.80;;;6.70;99.90;;;;;;4887011;29;20271;-90
2022/12/29 22:22:40;;;;;;;0.70;0.70;;;6.70;99.90;;;;;;4901482;29;20200;-91
2022/12/29 22:25:09;;;;;;;1.15;0.82;;;6.70;99.90;;;;;;4904285;29;20295;-92
2022/12/29 22:27:36;;;;;;;1.00;0.80;;;6.60;99.90;;;;;;4903637;29;20208;-91
2022/12/29 22:30:02;;;;;;;1.15;0.82;;;6.70;99.90;;;;;;4904013;29;20227;-91
2022/12/29 22:32:30;;;;;;;1.40;1.00;;;6.70;99.90;;;;;;4905324;29;20191;-93
2022/12/29 22:34:57;;;;;;;0.80;0.70;;;6.60;99.90;;;;;;4905018;29;20223;-92
2022/12/29 22:37:27;;;;;;;1.15;0.80;;;6.60;99.90;;;;;;4901218;29;20203;-91
2022/12/29 22:42:48;;;;;;;0.80;0.70;;;6.60;99.90;;;;;;4852929;29;20209;-92
2022/12/29 22:45:18;;;;;;;1.00;0.70;;;6.50;99.90;;;;;;4850304;29;20225;-91
2022/12/29 22:47:50;;;;;;;1.00;0.70;;;6.60;99.90;;;;;;4889036;29;20207;-91
2022/12/29 22:50:24;;;;;;;1.15;0.77;;;6.50;99.90;;;;;;4924626;23;20234;-93
2022/12/29 22:52:53;;;;;;;0.80;0.75;;;6.60;99.90;;;;;;4924593;29;20212;-91
2022/12/29 22:55:27;;;;;;;1.67;1.20;;;6.40;99.90;;;;;;4926620;29;20198;-92
2022/12/29 22:57:57;;;;;;;0.80;0.70;;;6.40;99.90;;;;;;4924476;29;20573;-91
2022/12/29 23:00:27;;;;;;;0.88;0.80;;;6.50;99.90;;;;;;4924686;29;20241;-91
2022/12/29 23:03:17;;;;;;;1.00;0.80;;;6.40;99.90;;;;;;4927106;29;20211;-91
2022/12/29 23:06:05;;;;;;;0.80;0.80;;;6.40;99.90;;;;;;4932618;29;20285;-93
2022/12/29 23:08:39;;;;;;;0.80;0.70;;;6.40;99.90;;;;;;4933405;29;20207;-92
2022/12/29 23:11:12;;;;;;;0.93;0.80;;;6.40;99.90;;;;;;4927312;29;20261;-93
2022/12/29 23:13:43;;;;;;;1.00;0.80;;;6.40;99.90;;;;;;4931317;29;20742;-92
2022/12/29 23:16:14;;;;;;;1.40;0.90;;;6.40;99.90;;;;;;4922926;29;20586;-91
2022/12/29 23:18:46;;;;;;;1.15;0.80;;;6.40;99.90;;;;;;4922538;29;20221;-91
2022/12/29 23:21:17;;;;;;;0.95;0.85;;;6.40;99.90;;;;;;4920413;29;20266;-91
2022/12/29 23:26:49;;;;;;;1.42;0.80;;;6.40;99.90;;;;;;4911894;29;20194;-91
2022/12/29 23:29:22;;;;;;;1.30;0.90;;;6.40;99.90;;;;;;4934117;29;20190;-94
2022/12/29 23:31:55;;;;;;;1.00;0.90;;;6.30;99.90;;;;;;4933750;29;20217;-91
2022/12/29 23:34:28;;;;;;;1.58;1.00;;;6.40;99.90;;;;;;4922643;29;20214;-92
2022/12/29 23:36:58;;;;;;;0.82;0.80;;;6.40;99.90;;;;;;4921299;29;20590;-92
2022/12/29 23:39:34;;;;;;;0.90;0.70;;;6.30;99.90;;;;;;4921437;29;20316;-92
2022/12/29 23:42:05;;;;;;;0.80;0.70;;;6.40;99.90;;;;;;4923669;29;20214;-92
2022/12/29 23:44:35;;;;;;;0.70;0.60;;;6.30;99.90;;;;;;4926752;29;20221;-92
2022/12/29 23:47:07;;;;;;;0.98;0.68;;;6.30;99.90;;;;;;4924934;29;20233;-92
2022/12/29 23:49:40;;;;;;;0.80;0.70;;;6.40;99.90;;;;;;4929426;29;20202;-93
2022/12/29 23:52:13;;;;;;;2.05;0.98;;;6.40;99.90;;;;;;4934506;29;20187;-92
2022/12/29 23:54:43;;;;;;;1.20;1.10;;;6.40;99.90;;;;;;4940886;29;20262;-95
2022/12/29 23:57:21;;;;;;;0.90;0.70;;;6.40;99.90;;;;;;4975462;23;20242;-92
2022/12/29 23:59:48;;;;;;;0.90;0.70;;;6.40;99.90;;;;;;4930914;29;20234;-93
